createdAt,value
2022-10-25T00:00:17.965Z,2.67
2022-10-25T00:03:00.628Z,2.67
2022-10-25T00:04:02.874Z,2.60
2022-10-25T00:05:07.187Z,2.92
2022-10-25T00:06:11.352Z,2.33
2022-10-25T00:07:13.687Z,2.15
2022-10-25T00:08:36.557Z,4.60
2022-10-25T00:09:46.803Z,2.22
2022-10-25T00:10:57.257Z,1.80
2022-10-25T00:12:16.035Z,1.80
2022-10-25T00:13:24.742Z,1.77
2022-10-25T00:14:34.598Z,2.20
2022-10-25T00:15:44.044Z,2.17
2022-10-25T00:17:00.312Z,2.33
2022-10-25T00:18:11.749Z,2.10
2022-10-25T00:19:20.693Z,2.25
2022-10-25T00:20:25.032Z,1.73
2022-10-25T00:21:38.240Z,3.05
2022-10-25T00:22:40.856Z,1.75
2022-10-25T00:23:51.280Z,2.47
2022-10-25T00:24:53.387Z,2.60
2022-10-25T00:26:02.611Z,2.00
2022-10-25T00:27:05.903Z,2.10
2022-10-25T00:28:23.199Z,1.75
2022-10-25T00:29:28.392Z,2.88
2022-10-25T00:30:42.814Z,1.85
2022-10-25T00:32:10.174Z,1.60
2022-10-25T00:33:17.112Z,2.28
2022-10-25T00:34:30.690Z,2.13
2022-10-25T00:35:36.575Z,2.00
2022-10-25T00:36:39.979Z,2.13
2022-10-25T00:37:42.143Z,1.90
2022-10-25T00:38:46.282Z,1.45
2022-10-25T00:39:48.621Z,1.42
2022-10-25T00:40:51.794Z,1.50
2022-10-25T00:41:55.530Z,1.80
2022-10-25T00:43:14.515Z,2.20
2022-10-25T00:44:53.765Z,2.80
2022-10-25T00:45:57.471Z,2.47
2022-10-25T00:46:59.714Z,1.63
2022-10-25T00:48:08.258Z,4.90
2022-10-25T00:49:41.814Z,2.08
2022-10-25T00:50:57.970Z,1.80
2022-10-25T00:52:09.248Z,2.08
2022-10-25T00:53:21.258Z,2.20
2022-10-25T00:54:39.563Z,1.85
2022-10-25T00:55:51.166Z,1.40
2022-10-25T00:57:10.402Z,5.05
2022-10-25T00:58:24.845Z,1.80
2022-10-25T00:59:30.327Z,2.42
2022-10-25T01:00:35.512Z,1.70
2022-10-25T01:01:47.789Z,1.83
2022-10-25T01:03:02.667Z,2.25
2022-10-25T01:04:13.185Z,1.48
2022-10-25T01:05:24.874Z,1.33
2022-10-25T01:06:38.952Z,1.77
2022-10-25T01:07:48.342Z,3.55
2022-10-25T01:09:10.569Z,5.93
2022-10-25T01:10:24.502Z,2.03
2022-10-25T01:11:38.304Z,1.60
2022-10-25T01:12:48.624Z,1.73
2022-10-25T01:14:05.488Z,2.95
2022-10-25T01:15:16.957Z,2.47
2022-10-25T01:16:34.327Z,2.55
2022-10-25T01:17:51.689Z,2.95
2022-10-25T01:19:31.428Z,3.05
2022-10-25T01:21:16.844Z,1.60
2022-10-25T01:22:23.381Z,3.05
2022-10-25T01:23:45.833Z,2.75
2022-10-25T01:25:28.863Z,2.20
2022-10-25T01:27:15.706Z,2.28
2022-10-25T01:28:35.918Z,2.05
2022-10-25T01:30:08.870Z,1.38
2022-10-25T01:31:40.645Z,1.77
2022-10-25T01:33:18.757Z,2.00
2022-10-25T01:34:26.211Z,2.85
2022-10-25T01:35:40.349Z,1.50
2022-10-25T01:36:51.807Z,2.03
2022-10-25T01:38:15.501Z,2.00
2022-10-25T01:40:59.828Z,1.70
2022-10-25T01:42:22.449Z,1.58
2022-10-25T01:43:53.109Z,2.25
2022-10-25T01:45:11.889Z,1.92
2022-10-25T01:46:28.201Z,2.10
2022-10-25T01:47:43.362Z,1.30
2022-10-25T01:48:50.301Z,1.30
2022-10-25T01:50:04.400Z,1.40
2022-10-25T01:51:17.933Z,3.08
2022-10-25T01:52:31.605Z,1.40
2022-10-25T01:55:35.651Z,2.25
2022-10-25T01:56:49.989Z,2.30
2022-10-25T01:58:22.069Z,2.15
2022-10-25T02:00:18.314Z,2.65
2022-10-25T02:01:41.173Z,2.10
2022-10-25T02:03:10.405Z,1.35
2022-10-25T02:04:25.365Z,1.75
2022-10-25T02:05:33.562Z,1.45
2022-10-25T02:06:52.581Z,1.30
2022-10-25T02:08:04.243Z,2.17
2022-10-25T02:09:33.180Z,1.00
2022-10-25T02:10:47.785Z,2.10
2022-10-25T02:11:58.816Z,2.33
2022-10-25T02:13:17.747Z,1.65
2022-10-25T02:14:36.869Z,1.63
2022-10-25T02:15:47.349Z,2.00
2022-10-25T02:17:11.800Z,1.73
2022-10-25T02:18:28.089Z,1.20
2022-10-25T02:19:39.205Z,1.40
2022-10-25T02:20:52.119Z,2.20
2022-10-25T02:22:04.686Z,4.80
2022-10-25T02:23:24.611Z,2.20
2022-10-25T02:24:59.440Z,2.53
2022-10-25T02:26:03.467Z,2.17
2022-10-25T02:27:09.835Z,1.67
2022-10-25T02:28:14.693Z,1.58
2022-10-25T02:29:30.594Z,2.53
2022-10-25T02:30:38.308Z,1.15
2022-10-25T02:32:00.512Z,4.50
2022-10-25T02:33:11.527Z,1.63
2022-10-25T02:34:14.801Z,2.10
2022-10-25T02:35:18.953Z,1.55
2022-10-25T02:36:25.143Z,4.72
2022-10-25T02:37:27.209Z,2.72
2022-10-25T02:38:30.403Z,2.35
2022-10-25T02:39:41.883Z,2.88
2022-10-25T02:40:55.451Z,1.85
2022-10-25T02:42:05.720Z,1.65
2022-10-25T02:43:15.533Z,1.13
2022-10-25T02:44:26.897Z,1.50
2022-10-25T02:45:38.849Z,1.42
2022-10-25T02:46:42.264Z,2.42
2022-10-25T02:47:44.470Z,1.20
2022-10-25T02:48:49.899Z,1.30
2022-10-25T02:49:55.370Z,1.98
2022-10-25T02:51:01.372Z,2.25
2022-10-25T02:52:03.452Z,1.58
2022-10-25T02:53:06.637Z,1.70
2022-10-25T02:54:11.539Z,1.95
2022-10-25T02:55:19.176Z,5.15
2022-10-25T02:56:26.783Z,3.53
2022-10-25T02:57:38.152Z,1.50
2022-10-25T02:58:52.173Z,2.50
2022-10-25T03:00:07.375Z,2.30
2022-10-25T03:01:14.729Z,2.20
2022-10-25T03:02:32.965Z,1.52
2022-10-25T03:03:47.466Z,2.05
2022-10-25T03:05:02.184Z,1.65
2022-10-25T03:06:19.399Z,3.75
2022-10-25T03:07:24.901Z,2.20
2022-10-25T03:09:31.094Z,2.15
2022-10-25T03:10:34.252Z,1.73
2022-10-25T03:11:50.347Z,2.83
2022-10-25T03:13:03.046Z,2.65
2022-10-25T03:14:10.651Z,4.80
2022-10-25T03:15:16.288Z,1.30
2022-10-25T03:16:18.438Z,2.00
2022-10-25T03:17:39.405Z,1.00
2022-10-25T03:18:49.633Z,2.38
2022-10-25T03:20:21.011Z,1.17
2022-10-25T03:21:45.269Z,1.63
2022-10-25T03:23:00.777Z,1.20
2022-10-25T03:24:15.666Z,2.25
2022-10-25T03:25:23.674Z,2.10
2022-10-25T03:26:27.261Z,1.35
2022-10-25T03:27:29.329Z,1.83
2022-10-25T03:28:33.059Z,1.25
2022-10-25T03:29:35.401Z,1.15
2022-10-25T03:30:59.768Z,2.10
2022-10-25T03:32:14.870Z,1.50
2022-10-25T03:33:35.902Z,1.15
2022-10-25T03:34:45.867Z,2.25
2022-10-25T03:35:57.105Z,1.30
2022-10-25T03:37:06.889Z,1.48
2022-10-25T03:38:17.463Z,1.10
2022-10-25T03:39:31.042Z,1.30
2022-10-25T03:40:38.487Z,1.65
2022-10-25T03:41:58.279Z,1.75
2022-10-25T03:43:19.829Z,2.20
2022-10-25T03:44:24.615Z,1.83
2022-10-25T03:45:27.925Z,1.38
2022-10-25T03:46:30.112Z,0.90
2022-10-25T03:47:45.057Z,4.82
2022-10-25T03:49:01.851Z,1.90
2022-10-25T03:50:21.958Z,2.65
2022-10-25T03:51:35.699Z,3.58
2022-10-25T03:53:01.966Z,1.30
2022-10-25T03:54:22.377Z,2.35
2022-10-25T03:55:56.982Z,2.10
2022-10-25T03:57:15.509Z,3.80
2022-10-25T03:58:25.479Z,1.77
2022-10-25T03:59:42.112Z,2.28
2022-10-25T04:00:59.778Z,1.30
2022-10-25T04:04:21.667Z,1.95
2022-10-25T04:05:29.565Z,1.20
2022-10-25T04:06:52.346Z,2.25
2022-10-25T04:08:19.197Z,1.88
2022-10-25T04:09:22.620Z,1.65
2022-10-25T04:10:30.593Z,3.10
2022-10-25T04:12:02.409Z,2.30
2022-10-25T04:13:20.080Z,1.55
2022-10-25T04:14:51.599Z,2.42
2022-10-25T04:16:25.698Z,2.00
2022-10-25T04:17:27.936Z,2.28
2022-10-25T04:19:05.122Z,1.85
2022-10-25T04:20:31.305Z,2.28
2022-10-25T04:22:04.084Z,1.95
2022-10-25T04:23:30.107Z,1.60
2022-10-25T04:24:37.260Z,2.17
2022-10-25T04:25:57.081Z,2.63
2022-10-25T04:27:36.766Z,2.95
2022-10-25T04:29:22.071Z,2.50
2022-10-25T04:30:52.255Z,4.20
2022-10-25T04:32:34.191Z,1.80
2022-10-25T04:33:42.988Z,1.30
2022-10-25T04:34:50.660Z,2.78
2022-10-25T04:36:03.686Z,1.10
2022-10-25T04:37:14.373Z,1.58
2022-10-25T04:38:25.243Z,1.70
2022-10-25T04:39:40.308Z,1.10
2022-10-25T04:41:01.917Z,2.80
2022-10-25T04:42:12.439Z,2.35
2022-10-25T04:43:35.975Z,3.60
2022-10-25T04:45:00.774Z,1.48
2022-10-25T04:46:08.551Z,2.30
2022-10-25T04:47:17.310Z,2.00
2022-10-25T04:48:36.194Z,2.22
2022-10-25T04:49:38.542Z,1.45
2022-10-25T04:50:41.908Z,2.13
2022-10-25T04:51:44.315Z,1.70
2022-10-25T04:52:49.300Z,1.30
2022-10-25T04:53:53.547Z,1.45
2022-10-25T04:55:02.796Z,3.65
2022-10-25T04:56:07.699Z,1.98
2022-10-25T04:57:10.980Z,1.73
2022-10-25T04:58:13.040Z,2.38
2022-10-25T04:59:16.183Z,1.45
2022-10-25T05:00:18.352Z,2.63
2022-10-25T05:01:21.659Z,1.60
2022-10-25T05:02:24.005Z,1.55
2022-10-25T05:03:27.380Z,2.47
2022-10-25T05:04:30.606Z,3.03
2022-10-25T05:05:43.111Z,2.00
2022-10-25T05:06:46.487Z,1.55
2022-10-25T05:07:50.268Z,1.92
2022-10-25T05:08:54.679Z,4.18
2022-10-25T05:09:56.798Z,3.35
2022-10-25T05:10:59.983Z,1.60
2022-10-25T05:12:03.195Z,1.90
2022-10-25T05:13:05.400Z,1.10
2022-10-25T05:14:08.606Z,6.65
2022-10-25T05:15:18.267Z,1.42
2022-10-25T05:16:26.143Z,1.00
2022-10-25T05:17:47.152Z,1.30
2022-10-25T05:18:55.645Z,1.23
2022-10-25T05:20:00.389Z,2.40
2022-10-25T05:21:05.939Z,1.77
2022-10-25T05:22:08.157Z,2.83
2022-10-25T05:23:13.047Z,3.58
2022-10-25T05:24:15.060Z,3.25
2022-10-25T05:25:26.085Z,2.53
2022-10-25T05:26:45.246Z,2.63
2022-10-25T05:28:02.918Z,1.10
2022-10-25T05:29:09.997Z,1.83
2022-10-25T05:30:28.738Z,1.50
2022-10-25T05:31:31.174Z,1.67
2022-10-25T05:32:34.684Z,1.50
2022-10-25T05:33:36.746Z,2.97
2022-10-25T05:34:40.068Z,2.17
2022-10-25T05:35:42.369Z,1.63
2022-10-25T05:36:45.768Z,2.03
2022-10-25T05:37:48.109Z,1.95
2022-10-25T05:38:53.121Z,2.30
2022-10-25T05:39:55.329Z,2.65
2022-10-25T05:41:01.060Z,1.65
2022-10-25T05:42:06.355Z,3.08
2022-10-25T05:43:09.623Z,1.60
2022-10-25T05:44:15.013Z,2.28
2022-10-25T05:45:17.308Z,1.70
2022-10-25T05:46:22.143Z,2.00
2022-10-25T05:47:25.482Z,2.03
2022-10-25T05:48:27.777Z,1.35
2022-10-25T05:49:31.078Z,1.30
2022-10-25T05:50:33.336Z,1.48
2022-10-25T05:51:37.629Z,1.85
2022-10-25T05:52:42.773Z,4.53
2022-10-25T05:53:56.311Z,3.92
2022-10-25T05:55:11.912Z,2.30
2022-10-25T05:56:34.598Z,4.05
2022-10-25T05:57:45.441Z,2.03
2022-10-25T06:00:54.473Z,3.13
2022-10-25T06:02:19.944Z,2.28
2022-10-25T06:03:47.606Z,4.15
2022-10-25T06:05:32.452Z,3.22
2022-10-25T06:08:17.895Z,5.13
2022-10-25T06:09:36.782Z,2.15
2022-10-25T06:12:38.051Z,1.40
2022-10-25T06:14:21.703Z,1.75
2022-10-25T06:15:45.597Z,4.15
2022-10-25T06:17:31.605Z,5.20
2022-10-25T06:18:48.654Z,1.75
2022-10-25T06:20:04.129Z,2.85
2022-10-25T06:21:08.500Z,1.90
2022-10-25T06:22:11.954Z,1.30
2022-10-25T06:23:14.151Z,2.17
2022-10-25T06:24:27.710Z,2.05
2022-10-25T06:25:35.454Z,1.63
2022-10-25T06:26:38.521Z,1.95
2022-10-25T06:27:40.579Z,1.83
2022-10-25T06:28:48.432Z,1.92
2022-10-25T06:29:54.159Z,2.80
2022-10-25T06:31:01.641Z,2.50
2022-10-25T06:32:05.326Z,1.67
2022-10-25T06:33:07.414Z,1.85
2022-10-25T06:34:10.838Z,2.17
2022-10-25T06:35:13.017Z,2.28
2022-10-25T06:36:18.223Z,2.05
2022-10-25T06:37:26.863Z,4.45
2022-10-25T06:38:40.005Z,3.22
2022-10-25T06:39:46.883Z,2.65
2022-10-25T06:40:51.028Z,2.63
2022-10-25T06:42:11.750Z,2.33
2022-10-25T06:43:31.617Z,2.42
2022-10-25T06:44:44.602Z,1.92
2022-10-25T06:46:03.356Z,2.88
2022-10-25T06:48:06.155Z,2.80
2022-10-25T06:49:09.387Z,1.65
2022-10-25T06:50:11.515Z,2.50
2022-10-25T06:51:14.958Z,1.75
2022-10-25T06:52:19.459Z,4.43
2022-10-25T06:53:21.823Z,2.88
2022-10-25T06:54:26.937Z,1.80
2022-10-25T06:55:30.215Z,1.92
2022-10-25T06:56:34.748Z,2.97
2022-10-25T06:57:37.887Z,1.83
2022-10-25T06:58:40.424Z,4.30
2022-10-25T06:59:43.688Z,3.13
2022-10-25T07:00:47.409Z,2.72
2022-10-25T07:02:08.832Z,3.20
2022-10-25T07:03:12.432Z,3.72
2022-10-25T07:04:23.379Z,3.55
2022-10-25T07:05:41.002Z,2.90
2022-10-25T07:06:59.652Z,2.60
2022-10-25T07:08:26.441Z,4.22
2022-10-25T07:11:44.930Z,2.50
2022-10-25T07:12:52.581Z,4.22
2022-10-25T07:14:17.354Z,2.25
2022-10-25T07:15:32.598Z,6.22
2022-10-25T07:16:56.299Z,4.00
2022-10-25T07:18:12.489Z,3.08
2022-10-25T07:19:37.156Z,1.98
2022-10-25T07:20:52.926Z,2.47
2022-10-25T07:21:56.206Z,2.13
2022-10-25T07:23:08.929Z,4.57
2022-10-25T07:24:30.458Z,1.95
2022-10-25T07:26:22.994Z,2.40
2022-10-25T07:28:07.712Z,2.70
2022-10-25T07:29:34.595Z,3.70
2022-10-25T07:31:05.347Z,1.75
2022-10-25T07:32:40.037Z,3.20
2022-10-25T07:37:16.651Z,3.10
2022-10-25T07:38:59.846Z,3.80
2022-10-25T07:40:03.549Z,4.20
2022-10-25T07:41:06.789Z,3.55
2022-10-25T07:42:17.699Z,6.05
2022-10-25T07:43:20.051Z,9.15
2022-10-25T07:46:18.836Z,6.60
2022-10-25T07:47:32.502Z,4.60
2022-10-25T07:48:59.826Z,4.47
2022-10-25T07:58:22.307Z,5.97
2022-10-25T08:00:12.863Z,4.00
2022-10-25T08:01:40.399Z,2.55
2022-10-25T08:02:54.944Z,2.85
2022-10-25T08:11:06.425Z,3.47
2022-10-25T11:30:32.904Z,1.65
2022-10-25T11:31:51.823Z,2.25
2022-10-25T11:33:10.766Z,4.22
2022-10-25T11:34:27.741Z,2.47
2022-10-25T11:35:59.270Z,2.30
2022-10-25T11:37:16.169Z,4.15
2022-10-25T11:38:40.952Z,2.72
2022-10-25T11:39:52.768Z,2.15
2022-10-25T11:41:06.081Z,2.47
2022-10-25T11:42:52.718Z,4.43
2022-10-25T11:44:06.175Z,2.40
2022-10-25T11:45:26.955Z,1.98
2022-10-25T11:46:40.471Z,2.40
2022-10-25T11:48:00.631Z,1.17
2022-10-25T11:49:27.812Z,2.55
2022-10-25T11:50:42.638Z,1.15
2022-10-25T11:51:57.264Z,1.65
2022-10-25T11:53:21.286Z,1.77
2022-10-25T11:54:35.012Z,3.58
2022-10-25T11:56:02.486Z,1.80
2022-10-25T11:57:42.098Z,3.35
2022-10-25T11:58:55.126Z,2.35
2022-10-25T12:00:04.373Z,6.55
2022-10-25T12:01:17.555Z,3.38
2022-10-25T12:02:53.279Z,4.15
2022-10-25T12:04:24.368Z,2.10
2022-10-25T12:05:39.383Z,1.90
2022-10-25T12:06:52.122Z,1.80
2022-10-25T12:08:31.406Z,1.67
2022-10-25T16:03:29.025Z,4.25
2022-10-25T16:05:18.973Z,4.10
2022-10-25T16:06:25.396Z,6.53
2022-10-25T16:14:09.092Z,3.25
2022-10-25T16:24:30.856Z,9.80
2022-10-25T16:26:32.295Z,7.40
2022-10-25T16:32:53.918Z,4.38
2022-10-25T17:27:33.960Z,4.55
2022-10-25T17:35:16.085Z,3.90
2022-10-25T18:13:30.123Z,6.38
2022-10-25T18:23:30.041Z,8.63
2022-10-25T18:27:28.573Z,6.40
2022-10-25T18:30:04.956Z,7.80
2022-10-25T18:32:36.456Z,6.15
2022-10-25T18:34:12.199Z,7.40
2022-10-25T18:39:25.473Z,10.05
2022-10-25T18:43:59.003Z,11.00
2022-10-25T18:48:45.510Z,10.07
2022-10-25T18:50:44.700Z,9.68
2022-10-25T18:51:56.989Z,7.90
2022-10-25T19:31:06.332Z,7.40
2022-10-25T19:34:22.468Z,7.32
2022-10-25T19:44:37.463Z,6.68
2022-10-25T19:45:48.547Z,8.35
2022-10-25T19:46:52.252Z,8.35
2022-10-25T19:47:56.998Z,10.02
2022-10-25T19:49:06.769Z,9.63
2022-10-25T19:50:12.908Z,10.98
2022-10-25T19:51:18.409Z,13.73
2022-10-25T19:52:20.854Z,8.65
2022-10-25T19:53:24.474Z,8.32
2022-10-25T19:54:28.728Z,9.43
2022-10-25T19:55:31.031Z,9.32
2022-10-25T19:56:37.240Z,10.55
2022-10-25T19:57:41.190Z,11.02
2022-10-25T19:58:45.135Z,9.48
2022-10-25T19:59:48.869Z,13.13
2022-10-25T20:01:00.819Z,10.55
2022-10-25T20:02:04.285Z,7.03
2022-10-25T20:03:06.919Z,8.52
2022-10-25T20:04:11.368Z,10.15
2022-10-25T20:05:13.667Z,8.35
2022-10-25T20:06:23.343Z,8.50
2022-10-25T20:07:28.175Z,10.05
2022-10-25T20:08:33.038Z,10.23
2022-10-25T20:09:36.511Z,9.25
2022-10-25T20:10:39.837Z,11.38
2022-10-25T20:11:42.412Z,10.90
2022-10-25T20:12:45.769Z,10.75
2022-10-25T20:13:58.393Z,8.57
2022-10-25T20:15:18.533Z,8.30
2022-10-25T20:16:31.895Z,10.35
2022-10-25T20:17:49.077Z,9.00
2022-10-25T20:19:02.061Z,8.52
2022-10-25T20:20:22.679Z,10.48
2022-10-25T20:21:33.230Z,10.45
2022-10-25T20:22:47.462Z,11.70
2022-10-25T20:24:02.532Z,10.63
2022-10-25T20:26:37.006Z,9.10
2022-10-25T20:27:57.608Z,8.60
2022-10-25T20:29:30.427Z,8.50
2022-10-25T20:31:02.409Z,9.65
2022-10-25T20:32:43.978Z,9.00
2022-10-25T20:33:51.791Z,11.68
2022-10-25T20:35:11.209Z,7.95
2022-10-25T20:36:18.512Z,7.07
2022-10-25T20:37:27.345Z,6.88
2022-10-25T20:38:30.067Z,8.02
2022-10-25T20:39:36.536Z,13.48
2022-10-25T20:40:39.843Z,9.77
2022-10-25T20:41:46.018Z,9.95
2022-10-25T20:42:48.235Z,7.95
2022-10-25T20:43:53.398Z,7.07
2022-10-25T20:45:25.286Z,7.55
2022-10-25T20:49:07.672Z,6.82
2022-10-25T20:50:34.324Z,6.78
2022-10-25T20:52:16.049Z,8.68
2022-10-25T20:54:02.045Z,8.65
2022-10-25T20:55:31.572Z,8.82
2022-10-25T20:57:14.491Z,6.53
2022-10-25T20:59:04.878Z,9.15
2022-10-25T21:02:21.164Z,11.95
2022-10-25T21:04:25.836Z,8.07
2022-10-25T21:06:10.634Z,11.27
2022-10-25T21:08:33.408Z,6.75
2022-10-25T21:10:46.890Z,11.05
2022-10-25T21:19:26.385Z,7.97
2022-10-25T21:23:26.927Z,8.57
2022-10-25T21:25:09.007Z,7.03
2022-10-25T21:27:24.798Z,9.00
2022-10-25T21:29:22.088Z,11.10
2022-10-25T21:33:22.987Z,7.97
2022-10-25T21:34:52.887Z,7.68
2022-10-25T21:37:08.931Z,8.43
2022-10-25T21:42:05.167Z,10.63
2022-10-25T21:47:57.394Z,11.20
2022-10-25T21:49:31.312Z,9.35
2022-10-25T21:53:48.838Z,10.40
2022-10-25T21:55:20.551Z,12.93
2022-10-25T21:56:32.948Z,10.35
2022-10-25T21:57:57.847Z,8.68
2022-10-25T21:59:14.689Z,9.50
2022-10-25T22:00:41.429Z,6.03
2022-10-25T22:01:58.242Z,9.10
2022-10-25T22:03:06.571Z,6.97
2022-10-25T22:04:14.868Z,6.80
2022-10-25T22:05:21.392Z,7.72
2022-10-25T22:08:38.247Z,9.43
2022-10-25T22:10:41.041Z,7.95
2022-10-25T22:12:35.987Z,10.32
2022-10-25T22:45:57.235Z,10.75
2022-10-25T23:04:06.400Z,9.27
2022-10-25T23:11:16.362Z,6.93
2022-10-25T23:13:19.640Z,6.45
2022-10-25T23:16:16.459Z,9.25
2022-10-25T23:20:35.289Z,4.85
2022-10-25T23:24:56.130Z,5.60
2022-10-25T23:27:19.641Z,4.57
2022-10-25T23:31:33.267Z,9.85
2022-10-25T23:33:50.509Z,17.80
2022-10-25T23:38:15.788Z,12.35
